Jennie K — WDE9719 — position and weather

sailwx.info

Track history (hours):
 
Tides and Currents Weather Stations Pressure Air Temp Water Temp Dewpoint Dewpoint Depression Visibility Wind Speed Wind Dir Waves Ship Positions

Jennie K

Owner: SCF Waxler Marine LLC, St Rose, LA. More information available from US FCC via Universal Licensing System and Coast Guard Vessel Documentation Center.

Last reported at 2017-Sep-09 14:02 UTC. Time now 2017-Sep-21 03:36 UTC.
Position N 41°11' W 091°03'.
Warning: this ship's position is 11 days out of date.

Length 65 m; draft 3.1 m.

Type: Tow > 200 m length. MMSI: 367420450.

Date/timePositionNaut miles runAvg speedWind from/ knotsBaromVisibWave heightAir tempDewpointWater temp
2017-Sep-09 14:02N 41°11' W 091°03'0 0.5
2017-Sep-09 13:48N 41°11' W 091°03'0 0.0
2017-Sep-09 13:30N 41°11' W 091°03'2 1.3
2017-Sep-09 11:40N 41°10' W 091°01'2 3.3
2017-Sep-09 11:13N 41°09' W 090°59'1 3.2
2017-Sep-09 11:00N 41°08' W 090°59'2 3.7
2017-Sep-09 10:30N 41°07' W 090°58'2 3.5
2017-Sep-09 10:00N 41°05' W 090°57'2 3.8
2017-Sep-09 09:30N 41°03' W 090°57'2 3.8
2017-Sep-09 09:00N 41°02' W 090°57'2 3.7
2017-Sep-09 08:30N 40°60' W 090°57'2 3.4
2017-Sep-09 08:00N 40°58' W 090°57'2 4.3
2017-Sep-09 07:30N 40°56' W 090°58'2 3.5
2017-Sep-09 07:00N 40°55' W 090°59'2 4.3
2017-Sep-09 06:30N 40°53' W 091°01'0 0.6
2017-Sep-09 06:00N 40°53' W 091°01'0 0.2
2017-Sep-09 05:30N 40°53' W 091°02'0 0.0
2017-Sep-09 05:00N 40°53' W 091°02'0 0.0
2017-Sep-09 04:30N 40°53' W 091°02'0 0.0
2017-Sep-09 04:00N 40°53' W 091°02'0 0.1
2017-Sep-09 03:30N 40°53' W 091°02'1 2.3
2017-Sep-09 03:00N 40°52' W 091°03'1 1.3
2017-Sep-09 02:30N 40°51' W 091°03'1 1.4
2017-Sep-09 02:00N 40°51' W 091°04'1 2.9
2017-Sep-09 01:30N 40°50' W 091°05'2 3.1
2017-Sep-09 01:00N 40°48' W 091°06'2 3.4
2017-Sep-09 00:30N 40°47' W 091°06'1 1.7
2017-Sep-08 23:56N 40°46' W 091°06'0 0.1
2017-Sep-08 23:29N 40°46' W 091°06'0 0.0
2017-Sep-08 22:58N 40°46' W 091°06'  
2017-Sep-05 08:30N 38°52' W 090°33'2 3.6
2017-Sep-05 07:59N 38°54' W 090°31'2 3.6
2017-Sep-05 07:30N 38°55' W 090°30'2 3.6
2017-Sep-05 07:00N 38°57' W 090°29'2 3.8
2017-Sep-05 06:30N 38°57' W 090°27'2 4.1
2017-Sep-05 06:00N 38°58' W 090°24'2 4.5
2017-Sep-05 05:30N 38°57' W 090°22'2 4.6
2017-Sep-05 05:00N 38°56' W 090°19'3 4.5
2017-Sep-05 04:15N 38°55' W 090°15'1 3.5
2017-Sep-05 04:00N 38°55' W 090°14'2 3.8
2017-Sep-05 03:29N 38°54' W 090°12'2 4.7
2017-Sep-05 03:00N 38°52' W 090°09'  
2017-Sep-02 19:43N 38°52' W 090°09'0 0.5
2017-Sep-02 19:30N 38°52' W 090°09'0 0.1
2017-Sep-02 19:00N 38°52' W 090°09'1 2.0
2017-Sep-02 18:28N 38°53' W 090°11'1 2.9
2017-Sep-02 17:59N 38°54' W 090°12'2 3.0
2017-Sep-02 17:25N 38°55' W 090°14'1 1.6
2017-Sep-02 16:57N 38°55' W 090°15'0 0.0
2017-Sep-02 11:40N 38°55' W 090°14'0 0.0
2017-Sep-02 11:30N 38°55' W 090°14'0 0.0
2017-Sep-02 09:27N 38°55' W 090°14'0 0.0
2017-Sep-02 08:54N 38°55' W 090°14'0 0.0
2017-Sep-02 07:22N 38°55' W 090°14'0 0.0
2017-Sep-01 23:29N 38°55' W 090°14'0 0.0
2017-Sep-01 19:56N 38°55' W 090°14'0 0.0
2017-Sep-01 19:29N 38°55' W 090°14'0 0.0
2017-Sep-01 18:49N 38°55' W 090°14'0 0.0
2017-Sep-01 18:30N 38°55' W 090°14'0 0.0
2017-Sep-01 18:00N 38°55' W 090°14'0 0.0
2017-Sep-01 17:26N 38°55' W 090°14'0 0.0
2017-Sep-01 17:00N 38°55' W 090°14'0 0.0
2017-Sep-01 16:24N 38°55' W 090°14'0 0.0
2017-Sep-01 15:58N 38°55' W 090°14'0 0.0
2017-Sep-01 15:30N 38°55' W 090°14'0 0.0
2017-Sep-01 14:52N 38°55' W 090°14'0 0.0
2017-Sep-01 08:53N 38°55' W 090°14'0 0.0
2017-Aug-31 19:30N 38°55' W 090°14'0 0.0
2017-Aug-31 19:00N 38°55' W 090°14'0 0.0
2017-Aug-31 18:30N 38°55' W 090°14'0 0.0
2017-Aug-31 17:57N 38°55' W 090°14'0 0.0
2017-Aug-31 17:24N 38°55' W 090°14'0 0.0
2017-Aug-31 15:26N 38°55' W 090°14'0 0.0
2017-Aug-31 15:00N 38°55' W 090°14'0 0.0
2017-Aug-31 14:23N 38°55' W 090°14'0 0.0
2017-Aug-31 13:59N 38°55' W 090°14'0 0.0
2017-Aug-31 13:30N 38°55' W 090°14'0 0.0
2017-Aug-31 13:00N 38°55' W 090°14'0 0.0
2017-Aug-31 12:28N 38°55' W 090°14'0 0.0
2017-Aug-31 11:27N 38°55' W 090°14'0 0.0
2017-Aug-31 10:58N 38°55' W 090°14'0 0.0
2017-Aug-31 10:28N 38°55' W 090°14'0 0.0
2017-Aug-31 09:59N 38°55' W 090°14'0 0.0
2017-Aug-31 09:29N 38°55' W 090°14'0 0.0
2017-Aug-31 08:58N 38°55' W 090°14'0 0.0
2017-Aug-31 08:23N 38°55' W 090°14'0 0.0
2017-Aug-31 07:57N 38°55' W 090°14'0 0.0
2017-Aug-31 07:29N 38°55' W 090°14'0 0.0
2017-Aug-31 06:59N 38°55' W 090°14'0 0.0
2017-Aug-31 06:30N 38°55' W 090°14'0 0.0
2017-Aug-31 06:00N 38°55' W 090°14'0 0.0
2017-Aug-31 05:30N 38°55' W 090°14'0 0.0
2017-Aug-31 05:00N 38°55' W 090°14'0 0.0
2017-Aug-31 04:30N 38°55' W 090°14'0 0.0
2017-Aug-31 03:46N 38°55' W 090°14'0 0.3
2017-Aug-31 03:23N 38°55' W 090°14'1 3.8
2017-Aug-31 03:00N 38°55' W 090°16'2 4.3
2017-Aug-31 02:30N 38°56' W 090°19'2 4.5
2017-Aug-31 02:00N 38°57' W 090°21'2 4.7
2017-Aug-31 01:30N 38°58' W 090°24'2 4.7
2017-Aug-31 01:00N 38°57' W 090°27'2 4.5
2017-Aug-31 00:30N 38°56' W 090°29'3 4.7
2017-Aug-30 23:49N 38°53' W 090°32'  
Track history (hours):
 
Tides and Currents Weather Stations Pressure Air Temp Water Temp Dewpoint Dewpoint Depression Visibility Wind Speed Wind Dir Waves Ship Positions

Jennie K

Owner: SCF Waxler Marine LLC, St Rose, LA. More information available from US FCC via Universal Licensing System and Coast Guard Vessel Documentation Center.

Last reported at 2017-Sep-09 14:02 UTC. Time now 2017-Sep-21 03:36 UTC.
Position N 41°11' W 091°03'.
Warning: this ship's position is 11 days out of date.

Length 65 m; draft 3.1 m.

Type: Tow > 200 m length. MMSI: 367420450.

Date/timePositionNaut miles runAvg speedWind from/ knotsBaromVisibWave heightAir tempDewpointWater temp
2017-Sep-09 14:02N 41°11' W 091°03'0 0.5
2017-Sep-09 13:48N 41°11' W 091°03'0 0.0
2017-Sep-09 13:30N 41°11' W 091°03'2 1.3
2017-Sep-09 11:40N 41°10' W 091°01'2 3.3
2017-Sep-09 11:13N 41°09' W 090°59'1 3.2
2017-Sep-09 11:00N 41°08' W 090°59'2 3.7
2017-Sep-09 10:30N 41°07' W 090°58'2 3.5
2017-Sep-09 10:00N 41°05' W 090°57'2 3.8
2017-Sep-09 09:30N 41°03' W 090°57'2 3.8
2017-Sep-09 09:00N 41°02' W 090°57'2 3.7
2017-Sep-09 08:30N 40°60' W 090°57'2 3.4
2017-Sep-09 08:00N 40°58' W 090°57'2 4.3
2017-Sep-09 07:30N 40°56' W 090°58'2 3.5
2017-Sep-09 07:00N 40°55' W 090°59'2 4.3
2017-Sep-09 06:30N 40°53' W 091°01'0 0.6
2017-Sep-09 06:00N 40°53' W 091°01'0 0.2
2017-Sep-09 05:30N 40°53' W 091°02'0 0.0
2017-Sep-09 05:00N 40°53' W 091°02'0 0.0
2017-Sep-09 04:30N 40°53' W 091°02'0 0.0
2017-Sep-09 04:00N 40°53' W 091°02'0 0.1
2017-Sep-09 03:30N 40°53' W 091°02'1 2.3
2017-Sep-09 03:00N 40°52' W 091°03'1 1.3
2017-Sep-09 02:30N 40°51' W 091°03'1 1.4
2017-Sep-09 02:00N 40°51' W 091°04'1 2.9
2017-Sep-09 01:30N 40°50' W 091°05'2 3.1
2017-Sep-09 01:00N 40°48' W 091°06'2 3.4
2017-Sep-09 00:30N 40°47' W 091°06'1 1.7
2017-Sep-08 23:56N 40°46' W 091°06'0 0.1
2017-Sep-08 23:29N 40°46' W 091°06'0 0.0
2017-Sep-08 22:58N 40°46' W 091°06'  
2017-Sep-05 08:30N 38°52' W 090°33'2 3.6
2017-Sep-05 07:59N 38°54' W 090°31'2 3.6
2017-Sep-05 07:30N 38°55' W 090°30'2 3.6
2017-Sep-05 07:00N 38°57' W 090°29'2 3.8
2017-Sep-05 06:30N 38°57' W 090°27'2 4.1
2017-Sep-05 06:00N 38°58' W 090°24'2 4.5
2017-Sep-05 05:30N 38°57' W 090°22'2 4.6
2017-Sep-05 05:00N 38°56' W 090°19'3 4.5
2017-Sep-05 04:15N 38°55' W 090°15'1 3.5
2017-Sep-05 04:00N 38°55' W 090°14'2 3.8
2017-Sep-05 03:29N 38°54' W 090°12'2 4.7
2017-Sep-05 03:00N 38°52' W 090°09'  
2017-Sep-02 19:43N 38°52' W 090°09'0 0.5
2017-Sep-02 19:30N 38°52' W 090°09'0 0.1
2017-Sep-02 19:00N 38°52' W 090°09'1 2.0
2017-Sep-02 18:28N 38°53' W 090°11'1 2.9
2017-Sep-02 17:59N 38°54' W 090°12'2 3.0
2017-Sep-02 17:25N 38°55' W 090°14'1 1.6
2017-Sep-02 16:57N 38°55' W 090°15'0 0.0
2017-Sep-02 11:40N 38°55' W 090°14'0 0.0
2017-Sep-02 11:30N 38°55' W 090°14'0 0.0
2017-Sep-02 09:27N 38°55' W 090°14'0 0.0
2017-Sep-02 08:54N 38°55' W 090°14'0 0.0
2017-Sep-02 07:22N 38°55' W 090°14'0 0.0
2017-Sep-01 23:29N 38°55' W 090°14'0 0.0
2017-Sep-01 19:56N 38°55' W 090°14'0 0.0
2017-Sep-01 19:29N 38°55' W 090°14'0 0.0
2017-Sep-01 18:49N 38°55' W 090°14'0 0.0
2017-Sep-01 18:30N 38°55' W 090°14'0 0.0
2017-Sep-01 18:00N 38°55' W 090°14'0 0.0
2017-Sep-01 17:26N 38°55' W 090°14'0 0.0
2017-Sep-01 17:00N 38°55' W 090°14'0 0.0
2017-Sep-01 16:24N 38°55' W 090°14'0 0.0
2017-Sep-01 15:58N 38°55' W 090°14'0 0.0
2017-Sep-01 15:30N 38°55' W 090°14'0 0.0
2017-Sep-01 14:52N 38°55' W 090°14'0 0.0
2017-Sep-01 08:53N 38°55' W 090°14'0 0.0
2017-Aug-31 19:30N 38°55' W 090°14'0 0.0
2017-Aug-31 19:00N 38°55' W 090°14'0 0.0
2017-Aug-31 18:30N 38°55' W 090°14'0 0.0
2017-Aug-31 17:57N 38°55' W 090°14'0 0.0
2017-Aug-31 17:24N 38°55' W 090°14'0 0.0
2017-Aug-31 15:26N 38°55' W 090°14'0 0.0
2017-Aug-31 15:00N 38°55' W 090°14'0 0.0
2017-Aug-31 14:23N 38°55' W 090°14'0 0.0
2017-Aug-31 13:59N 38°55' W 090°14'0 0.0
2017-Aug-31 13:30N 38°55' W 090°14'0 0.0
2017-Aug-31 13:00N 38°55' W 090°14'0 0.0
2017-Aug-31 12:28N 38°55' W 090°14'0 0.0
2017-Aug-31 11:27N 38°55' W 090°14'0 0.0
2017-Aug-31 10:58N 38°55' W 090°14'0 0.0
2017-Aug-31 10:28N 38°55' W 090°14'0 0.0
2017-Aug-31 09:59N 38°55' W 090°14'0 0.0
2017-Aug-31 09:29N 38°55' W 090°14'0 0.0
2017-Aug-31 08:58N 38°55' W 090°14'0 0.0
2017-Aug-31 08:23N 38°55' W 090°14'0 0.0
2017-Aug-31 07:57N 38°55' W 090°14'0 0.0
2017-Aug-31 07:29N 38°55' W 090°14'0 0.0
2017-Aug-31 06:59N 38°55' W 090°14'0 0.0
2017-Aug-31 06:30N 38°55' W 090°14'0 0.0
2017-Aug-31 06:00N 38°55' W 090°14'0 0.0
2017-Aug-31 05:30N 38°55' W 090°14'0 0.0
2017-Aug-31 05:00N 38°55' W 090°14'0 0.0
2017-Aug-31 04:30N 38°55' W 090°14'0 0.0
2017-Aug-31 03:46N 38°55' W 090°14'0 0.3
2017-Aug-31 03:23N 38°55' W 090°14'1 3.8
2017-Aug-31 03:00N 38°55' W 090°16'2 4.3
2017-Aug-31 02:30N 38°56' W 090°19'2 4.5
2017-Aug-31 02:00N 38°57' W 090°21'2 4.7
2017-Aug-31 01:30N 38°58' W 090°24'2 4.7
2017-Aug-31 01:00N 38°57' W 090°27'2 4.5
2017-Aug-31 00:30N 38°56' W 090°29'3 4.7
2017-Aug-30 23:49N 38°53' W 090°32'  

Dump ship's entire track history